« Back
NWS Peachtree City, Ga » Text Product » AHN Terminal Aerodrome Forecast


Printer-friendly Version
Current Version              Previous Versions:   1  2  3  4  5  6  7  8  9  

Terminal Aerodrome Forecast

108
FTUS42 KFFC 021741
TAFAHN
TAF
KAHN 021741Z 0218/0318 24008KT P6SM FEW050 SCT250
      TEMPO 0218/0222 22010G20KT 4SM TSRA BR BKN025CB
     FM022300 22009KT 4SM -TSRA BR BKN025CB
     FM030300 23008KT P6SM VCSH BKN040
     FM030600 25004KT 5SM BR SCT009 BKN015
     FM031200 24005KT P6SM BKN007 PROB30 0316/0318 -SHRA SCT007
      BKN015=

USA.gov is the U.S. government's official web portal to all federal, state and local government web resources and services.